Time;durP1;ratioP1;P1;durP2;ratioP2;P2;SDS_P1;SDS_P2;PMS_P1;PMS_P2;Temp;Humidity;BMP_temperature;BMP_pressure;BME280_temperature;BME280_humidity;BME280_pressure;Samples;Min_cycle;Max_cycle;Signal;HPM_P1;HPM_P2
2024/01/01 00:00:53;;;;;;;29.50;27.58;;;;;;;;;;4166486;28;20124;-64
2024/01/01 00:02:54;;;;;;;27.92;26.58;;;;;;;;;;4172694;28;20079;-64
2024/01/01 00:04:58;;;;;;;27.40;25.88;;;;;;;;;;4179669;28;20103;-64
2024/01/01 00:06:59;;;;;;;27.25;26.00;;;;;;;;;;4168717;28;20059;-64
2024/01/01 00:09:01;;;;;;;30.87;29.17;;;;;;;;;;4174423;28;20040;-64
2024/01/01 00:11:03;;;;;;;28.13;27.03;;;;;;;;;;4175476;28;20057;-63
2024/01/01 00:13:04;;;;;;;28.33;26.88;;;;;;;;;;4173772;28;20036;-63
2024/01/01 00:15:06;;;;;;;29.27;27.27;;;;;;;;;;4172858;28;20125;-64
2024/01/01 00:17:07;;;;;;;28.05;26.52;;;;;;;;;;4176227;28;20041;-64
2024/01/01 00:19:09;;;;;;;26.52;25.40;;;;;;;;;;4170163;28;20037;-63
2024/01/01 00:21:11;;;;;;;29.02;27.67;;;;;;;;;;4178441;28;20051;-64
2024/01/01 00:23:13;;;;;;;28.50;27.33;;;;;;;;;;4140718;28;20153;-64
2024/01/01 00:25:15;;;;;;;28.77;27.20;;;;;;;;;;4165356;28;20042;-64
2024/01/01 00:27:17;;;;;;;26.98;25.70;;;;;;;;;;4180826;28;20037;-63
2024/01/01 00:29:18;;;;;;;30.80;28.80;;;;;;;;;;4168161;28;20049;-64
2024/01/01 00:31:31;;;;;;;28.92;27.55;;;;;;;;;;4176903;28;20049;-64
2024/01/01 00:33:33;;;;;;;29.10;27.20;;;;;;;;;;4168989;28;20102;-63
2024/01/01 00:35:35;;;;;;;28.95;27.20;;;;;;;;;;4165419;28;20041;-64
2024/01/01 00:37:36;;;;;;;29.03;27.80;;;;;;;;;;4165327;28;20037;-64
2024/01/01 00:39:38;;;;;;;28.00;26.60;;;;;;;;;;4153557;28;20588;-64
2024/01/01 00:41:40;;;;;;;27.43;25.63;;;;;;;;;;4167433;28;20334;-64
2024/01/01 00:43:43;;;;;;;27.77;26.27;;;;;;;;;;4165007;28;20100;-64
2024/01/01 00:45:44;;;;;;;26.98;25.75;;;;;;;;;;4161391;28;20088;-65
2024/01/01 00:47:50;;;;;;;29.90;27.80;;;;;;;;;;4165894;28;20061;-64
2024/01/01 00:49:52;;;;;;;25.17;23.85;;;;;;;;;;4167667;28;20152;-64
2024/01/01 00:51:54;;;;;;;29.73;27.83;;;;;;;;;;4154141;28;20053;-64
2024/01/01 00:53:55;;;;;;;28.13;26.90;;;;;;;;;;4181698;28;20045;-63
2024/01/01 00:55:57;;;;;;;29.23;27.30;;;;;;;;;;4176459;28;20041;-64
2024/01/01 00:57:58;;;;;;;28.27;27.00;;;;;;;;;;4171524;28;20399;-64
2024/01/01 01:00:00;;;;;;;28.60;27.20;;;;;;;;;;4179064;28;20528;-62
2024/01/01 01:02:02;;;;;;;29.65;27.63;;;;;;;;;;4172036;28;20084;-61
2024/01/01 01:04:03;;;;;;;29.77;28.20;;;;;;;;;;4166342;28;20120;-62
2024/01/01 01:06:05;;;;;;;30.63;28.92;;;;;;;;;;4158466;28;20049;-61
2024/01/01 01:08:21;;;;;;;28.60;27.38;;;;;;;;;;4170183;28;20033;-61
2024/01/01 01:10:23;;;;;;;28.30;26.88;;;;;;;;;;4181124;28;20462;-61
2024/01/01 01:12:25;;;;;;;28.83;27.08;;;;;;;;;;4166599;28;20049;-61
2024/01/01 01:14:27;;;;;;;28.30;26.63;;;;;;;;;;4178550;28;20048;-61
2024/01/01 01:16:28;;;;;;;26.90;25.97;;;;;;;;;;4168615;28;20782;-61
2024/01/01 01:18:30;;;;;;;27.47;26.37;;;;;;;;;;4175868;28;20052;-61
2024/01/01 01:20:31;;;;;;;28.20;26.87;;;;;;;;;;4171123;28;20496;-61
2024/01/01 01:22:33;;;;;;;31.17;29.27;;;;;;;;;;4173771;28;20283;-61
2024/01/01 01:24:35;;;;;;;28.13;26.80;;;;;;;;;;4173554;28;20048;-61
2024/01/01 01:26:36;;;;;;;29.47;27.83;;;;;;;;;;4170946;28;20037;-61
2024/01/01 01:28:38;;;;;;;27.23;26.07;;;;;;;;;;4176040;28;20033;-61
2024/01/01 01:30:39;;;;;;;28.67;26.90;;;;;;;;;;4168428;28;20038;-61
2024/01/01 01:32:41;;;;;;;28.10;26.67;;;;;;;;;;4169168;28;20025;-61
2024/01/01 01:34:43;;;;;;;29.02;27.27;;;;;;;;;;4164385;28;20045;-62
2024/01/01 01:36:44;;;;;;;31.07;28.83;;;;;;;;;;4179112;28;20044;-61
2024/01/01 01:38:46;;;;;;;29.13;27.90;;;;;;;;;;4166386;28;20517;-60
2024/01/01 01:40:48;;;;;;;27.60;26.67;;;;;;;;;;4177764;28;20049;-61
2024/01/01 01:42:50;;;;;;;29.13;27.57;;;;;;;;;;4168529;28;20288;-61
2024/01/01 01:44:52;;;;;;;;;;;;;;;;;;4167375;28;20324;-61
2024/01/01 01:46:53;;;;;;;27.60;26.50;;;;;;;;;;4170402;28;19932;-61
2024/01/01 01:48:57;;;;;;;28.02;26.60;;;;;;;;;;4172264;28;20607;-61
2024/01/01 01:50:58;;;;;;;;;;;;;;;;;;4173840;28;20041;-61
2024/01/01 01:53:00;;;;;;;26.83;25.13;;;;;;;;;;4166879;28;20359;-61
2024/01/01 01:55:02;;;;;;;28.13;26.27;;;;;;;;;;4170155;28;20131;-61
2024/01/01 01:57:05;;;;;;;29.15;27.92;;;;;;;;;;4177335;28;20493;-61
2024/01/01 01:59:07;;;;;;;27.10;25.42;;;;;;;;;;4165002;28;20084;-61
2024/01/01 02:01:10;;;;;;;25.98;24.92;;;;;;;;;;4145518;28;20044;-63
2024/01/01 02:03:12;;;;;;;28.73;27.13;;;;;;;;;;4165612;28;20405;-64
2024/01/01 02:05:14;;;;;;;26.00;25.20;;;;;;;;;;4177135;28;20046;-63
2024/01/01 02:07:17;;;;;;;27.20;26.05;;;;;;;;;;4168891;28;20053;-64
2024/01/01 02:09:19;;;;;;;27.53;26.63;;;;;;;;;;4179427;28;20072;-63
2024/01/01 02:11:20;;;;;;;25.38;24.52;;;;;;;;;;4173361;28;20041;-63
2024/01/01 02:13:26;;;;;;;25.00;24.17;;;;;;;;;;4172401;28;20505;-63
2024/01/01 02:15:28;;;;;;;28.92;27.35;;;;;;;;;;4170213;28;20073;-63
2024/01/01 02:17:29;;;;;;;26.23;25.53;;;;;;;;;;4169022;28;20046;-63
2024/01/01 02:19:31;;;;;;;25.70;24.50;;;;;;;;;;4160006;28;20298;-63
2024/01/01 02:21:33;;;;;;;23.93;23.27;;;;;;;;;;4163994;28;20052;-63
2024/01/01 02:23:34;;;;;;;24.75;24.20;;;;;;;;;;4157005;28;20323;-63
2024/01/01 02:25:36;;;;;;;24.13;23.35;;;;;;;;;;4158394;28;20045;-63
2024/01/01 02:27:38;;;;;;;25.98;24.67;;;;;;;;;;4163989;28;20058;-63
2024/01/01 02:29:40;;;;;;;25.98;25.02;;;;;;;;;;4164022;28;20046;-63
2024/01/01 02:31:41;;;;;;;23.43;22.53;;;;;;;;;;4165598;28;20045;-64
2024/01/01 02:33:43;;;;;;;23.15;22.55;;;;;;;;;;4162616;28;20655;-63
2024/01/01 02:35:46;;;;;;;24.20;23.17;;;;;;;;;;4163727;28;20077;-63
2024/01/01 02:37:48;;;;;;;21.13;20.57;;;;;;;;;;4172218;28;20513;-63
2024/01/01 02:39:50;;;;;;;22.87;22.37;;;;;;;;;;4170467;28;20559;-63
2024/01/01 02:41:51;;;;;;;23.50;22.97;;;;;;;;;;4148035;28;20046;-63
2024/01/01 02:43:53;;;;;;;23.57;22.63;;;;;;;;;;4176084;28;20048;-63
2024/01/01 02:45:54;;;;;;;22.38;21.98;;;;;;;;;;4166947;28;20045;-63
2024/01/01 02:47:57;;;;;;;23.90;22.83;;;;;;;;;;4179418;28;20075;-63
2024/01/01 02:49:58;;;;;;;22.55;22.00;;;;;;;;;;4166629;28;20481;-63
2024/01/01 02:52:00;;;;;;;22.53;21.77;;;;;;;;;;4179605;28;20457;-64
2024/01/01 02:54:02;;;;;;;21.55;20.98;;;;;;;;;;4180582;28;20383;-63
2024/01/01 02:56:03;;;;;;;23.17;22.40;;;;;;;;;;4170943;28;20047;-63
2024/01/01 02:58:05;;;;;;;22.58;21.95;;;;;;;;;;4178110;28;20160;-63
2024/01/01 03:00:10;;;;;;;21.35;21.05;;;;;;;;;;4173505;28;20404;-63
2024/01/01 03:02:13;;;;;;;21.80;21.40;;;;;;;;;;4174640;28;20045;-64
2024/01/01 03:04:15;;;;;;;23.38;22.67;;;;;;;;;;4176341;28;20136;-64
2024/01/01 03:06:17;;;;;;;23.30;22.40;;;;;;;;;;4172367;28;20041;-64
2024/01/01 03:08:19;;;;;;;;;;;;;;;;;;4179348;28;20287;-64
2024/01/01 03:10:21;;;;;;;22.58;22.05;;;;;;;;;;4165645;28;20317;-64
2024/01/01 03:12:22;;;;;;;22.53;21.83;;;;;;;;;;4168731;28;20487;-63
2024/01/01 03:14:24;;;;;;;23.23;22.60;;;;;;;;;;4182331;28;20045;-64
2024/01/01 03:16:26;;;;;;;23.60;22.97;;;;;;;;;;4168123;28;20539;-63
2024/01/01 03:18:28;;;;;;;23.03;22.10;;;;;;;;;;4162700;28;20057;-63
2024/01/01 03:20:31;;;;;;;22.65;22.23;;;;;;;;;;4169773;28;20048;-64
2024/01/01 03:22:33;;;;;;;22.65;21.85;;;;;;;;;;4177500;28;20049;-63
2024/01/01 03:24:35;;;;;;;23.02;22.40;;;;;;;;;;4173340;28;20045;-63
2024/01/01 03:26:36;;;;;;;24.38;23.48;;;;;;;;;;4167078;28;20563;-63
2024/01/01 03:28:38;;;;;;;22.13;21.73;;;;;;;;;;4175921;28;20076;-63
2024/01/01 03:30:39;;;;;;;22.63;21.73;;;;;;;;;;4172709;28;20064;-63
2024/01/01 03:32:41;;;;;;;23.57;22.63;;;;;;;;;;4178354;28;20774;-63
2024/01/01 03:34:43;;;;;;;24.23;23.40;;;;;;;;;;4169909;28;20048;-63
2024/01/01 03:36:45;;;;;;;22.70;22.15;;;;;;;;;;4169167;28;20116;-63
2024/01/01 03:38:46;;;;;;;23.98;23.48;;;;;;;;;;4166824;28;20079;-63
2024/01/01 03:40:48;;;;;;;23.10;22.70;;;;;;;;;;4151716;28;20054;-63
2024/01/01 03:42:50;;;;;;;24.38;23.92;;;;;;;;;;4180553;28;20283;-64
2024/01/01 03:44:51;;;;;;;20.70;20.23;;;;;;;;;;4170002;28;20041;-62
2024/01/01 03:46:53;;;;;;;23.07;22.60;;;;;;;;;;4178189;28;20095;-63
2024/01/01 03:48:55;;;;;;;23.73;23.02;;;;;;;;;;4172286;28;20049;-63
2024/01/01 03:50:56;;;;;;;24.10;23.45;;;;;;;;;;4158014;28;20050;-63
2024/01/01 03:52:58;;;;;;;24.67;24.20;;;;;;;;;;4176827;28;20068;-63
2024/01/01 03:55:00;;;;;;;23.02;22.58;;;;;;;;;;4173075;28;20050;-63
2024/01/01 03:57:02;;;;;;;27.05;25.98;;;;;;;;;;4176766;28;20744;-63
2024/01/01 03:59:03;;;;;;;23.87;22.93;;;;;;;;;;4169416;28;20046;-62
2024/01/01 04:01:10;;;;;;;24.30;23.77;;;;;;;;;;4178891;28;20132;-63
2024/01/01 04:03:12;;;;;;;24.23;23.33;;;;;;;;;;4166828;28;20280;-63
2024/01/01 04:05:14;;;;;;;23.35;22.45;;;;;;;;;;4151712;28;20070;-63
2024/01/01 04:07:16;;;;;;;22.83;22.05;;;;;;;;;;4180150;28;20043;-64
2024/01/01 04:09:18;;;;;;;23.20;22.73;;;;;;;;;;4176859;28;20050;-63
2024/01/01 04:11:20;;;;;;;23.45;22.63;;;;;;;;;;4177712;28;20091;-63
2024/01/01 04:13:21;;;;;;;25.10;24.10;;;;;;;;;;4172019;28;20110;-63
2024/01/01 04:15:23;;;;;;;24.85;24.25;;;;;;;;;;4174890;28;20484;-63
2024/01/01 04:17:25;;;;;;;24.63;23.77;;;;;;;;;;4174420;28;20041;-63
2024/01/01 04:19:27;;;;;;;24.83;24.00;;;;;;;;;;4172309;28;20076;-62
2024/01/01 04:21:28;;;;;;;24.40;23.35;;;;;;;;;;4172529;28;20513;-63
2024/01/01 04:23:30;;;;;;;23.73;22.30;;;;;;;;;;4165705;28;20033;-63
2024/01/01 04:25:32;;;;;;;24.27;23.60;;;;;;;;;;4179339;28;20041;-63
2024/01/01 04:27:34;;;;;;;24.47;23.57;;;;;;;;;;4167475;28;20652;-63
2024/01/01 04:29:36;;;;;;;24.23;23.05;;;;;;;;;;4180900;28;20037;-63
2024/01/01 04:31:37;;;;;;;24.63;23.60;;;;;;;;;;4167167;28;20037;-62
2024/01/01 04:33:39;;;;;;;23.52;22.65;;;;;;;;;;4155359;28;20519;-62
2024/01/01 04:35:41;;;;;;;24.60;23.80;;;;;;;;;;4177126;28;20374;-63
2024/01/01 04:37:43;;;;;;;24.58;23.52;;;;;;;;;;4167108;28;20069;-63
2024/01/01 04:39:44;;;;;;;25.93;24.87;;;;;;;;;;4173752;28;20037;-62
2024/01/01 04:41:46;;;;;;;24.07;23.23;;;;;;;;;;4171695;28;20361;-62
2024/01/01 04:43:47;;;;;;;25.17;23.92;;;;;;;;;;4171135;28;20092;-63
2024/01/01 04:45:49;;;;;;;24.27;22.83;;;;;;;;;;4156646;28;20042;-63
2024/01/01 04:47:51;;;;;;;25.37;23.97;;;;;;;;;;4168703;28;20034;-63
2024/01/01 04:49:53;;;;;;;23.33;22.73;;;;;;;;;;4176874;28;20037;-63
2024/01/01 04:51:54;;;;;;;25.27;24.05;;;;;;;;;;4168992;28;20041;-63
2024/01/01 04:53:56;;;;;;;25.20;24.47;;;;;;;;;;4181682;28;20037;-63
2024/01/01 04:55:57;;;;;;;25.10;24.50;;;;;;;;;;4152945;28;20468;-63
2024/01/01 04:57:59;;;;;;;24.70;24.10;;;;;;;;;;4179131;28;20071;-63
2024/01/01 05:00:01;;;;;;;24.60;23.50;;;;;;;;;;4155594;28;20090;-63
2024/01/01 05:02:02;;;;;;;24.42;23.50;;;;;;;;;;4176409;28;20080;-63
2024/01/01 05:04:04;;;;;;;26.55;25.02;;;;;;;;;;4171296;28;20056;-63
2024/01/01 05:06:06;;;;;;;26.37;25.17;;;;;;;;;;4174211;28;20054;-63
2024/01/01 05:08:07;;;;;;;24.87;24.27;;;;;;;;;;4173174;28;20283;-62
2024/01/01 05:10:09;;;;;;;22.67;22.02;;;;;;;;;;4181244;28;20052;-63
2024/01/01 05:12:14;;;;;;;25.90;24.65;;;;;;;;;;4170379;28;20076;-63
2024/01/01 05:14:16;;;;;;;23.92;22.67;;;;;;;;;;4177391;28;20546;-62
2024/01/01 05:16:17;;;;;;;24.25;23.35;;;;;;;;;;4167402;28;20068;-62
2024/01/01 05:18:19;;;;;;;24.17;23.07;;;;;;;;;;4170571;28;20069;-63
2024/01/01 05:20:21;;;;;;;25.80;24.77;;;;;;;;;;4165346;28;20379;-63
2024/01/01 05:22:22;;;;;;;24.97;24.10;;;;;;;;;;4179453;28;20044;-63
2024/01/01 05:24:24;;;;;;;25.17;24.02;;;;;;;;;;4167727;28;20341;-63
2024/01/01 05:26:25;;;;;;;22.47;21.63;;;;;;;;;;4176688;28;20052;-62
2024/01/01 05:28:27;;;;;;;25.83;24.97;;;;;;;;;;4148071;28;20034;-63
2024/01/01 05:30:31;;;;;;;25.03;23.90;;;;;;;;;;4171171;28;20424;-62
2024/01/01 05:32:33;;;;;;;25.35;24.45;;;;;;;;;;4172940;28;20342;-60
2024/01/01 05:34:35;;;;;;;23.35;22.63;;;;;;;;;;4174019;28;20084;-60
2024/01/01 05:36:37;;;;;;;24.17;23.53;;;;;;;;;;4169959;28;20071;-60
2024/01/01 05:38:39;;;;;;;23.77;23.08;;;;;;;;;;4177125;28;20041;-60
2024/01/01 05:40:42;;;;;;;25.52;24.63;;;;;;;;;;4167275;28;20037;-60
2024/01/01 05:42:43;;;;;;;25.55;24.88;;;;;;;;;;4179357;28;20047;-59
2024/01/01 05:44:45;;;;;;;24.83;24.13;;;;;;;;;;4147935;28;20600;-60
2024/01/01 05:46:47;;;;;;;25.70;24.20;;;;;;;;;;4161715;28;20501;-60
2024/01/01 05:48:49;;;;;;;26.23;25.30;;;;;;;;;;4167307;28;20690;-60
2024/01/01 05:50:51;;;;;;;24.48;23.42;;;;;;;;;;4176449;28;20076;-60
2024/01/01 05:52:52;;;;;;;25.35;24.73;;;;;;;;;;4173825;28;20043;-60
2024/01/01 05:54:54;;;;;;;25.27;24.67;;;;;;;;;;4174098;28;20133;-60
2024/01/01 05:56:56;;;;;;;23.30;22.50;;;;;;;;;;4172059;28;20037;-60
2024/01/01 05:58:57;;;;;;;24.83;23.77;;;;;;;;;;4171794;28;20288;-60
2024/01/01 06:00:59;;;;;;;26.35;25.25;;;;;;;;;;4174228;28;20049;-60
2024/01/01 06:03:00;;;;;;;26.88;25.98;;;;;;;;;;4168819;28;20052;-60
2024/01/01 06:05:02;;;;;;;23.63;23.17;;;;;;;;;;4177227;28;20072;-60
2024/01/01 06:07:04;;;;;;;26.50;25.58;;;;;;;;;;4166368;28;20137;-60
2024/01/01 06:09:06;;;;;;;25.73;24.77;;;;;;;;;;4177940;28;20504;-60
2024/01/01 06:11:07;;;;;;;26.07;25.23;;;;;;;;;;4149585;28;20073;-60
2024/01/01 06:13:09;;;;;;;26.00;24.98;;;;;;;;;;4160832;28;20049;-60
2024/01/01 06:15:12;;;;;;;24.20;23.60;;;;;;;;;;4163844;28;20142;-60
2024/01/01 06:17:14;;;;;;;25.48;24.42;;;;;;;;;;4169051;28;20052;-60
2024/01/01 06:19:19;;;;;;;26.60;25.38;;;;;;;;;;4173765;28;20068;-60
2024/01/01 06:21:21;;;;;;;28.50;26.92;;;;;;;;;;4171367;28;20037;-60
2024/01/01 06:23:22;;;;;;;27.67;26.67;;;;;;;;;;4171049;28;20046;-59
2024/01/01 06:25:24;;;;;;;24.57;23.80;;;;;;;;;;4163842;28;20060;-59
2024/01/01 06:27:26;;;;;;;27.30;26.52;;;;;;;;;;4175370;28;20084;-59
2024/01/01 06:29:27;;;;;;;26.38;25.25;;;;;;;;;;4167055;28;20041;-59
2024/01/01 06:31:29;;;;;;;26.60;25.17;;;;;;;;;;4161280;28;20119;-59
2024/01/01 06:33:31;;;;;;;26.77;25.77;;;;;;;;;;4177268;28;20455;-60
2024/01/01 06:35:32;;;;;;;26.42;25.52;;;;;;;;;;4179550;28;20405;-60
2024/01/01 06:37:34;;;;;;;25.92;24.60;;;;;;;;;;4165974;28;20525;-59
2024/01/01 06:39:36;;;;;;;26.43;25.37;;;;;;;;;;4176748;28;20425;-60
2024/01/01 06:41:37;;;;;;;27.33;26.13;;;;;;;;;;4168522;28;20279;-62
2024/01/01 06:43:39;;;;;;;24.00;23.10;;;;;;;;;;4174781;28;20038;-60
2024/01/01 06:45:40;;;;;;;26.00;24.50;;;;;;;;;;4170933;28;20120;-60
2024/01/01 06:47:42;;;;;;;26.23;25.38;;;;;;;;;;4172001;28;20042;-60
2024/01/01 06:49:44;;;;;;;25.92;24.95;;;;;;;;;;4173330;28;20040;-60
2024/01/01 06:51:50;;;;;;;24.95;23.88;;;;;;;;;;4169814;28;20505;-59
2024/01/01 06:53:52;;;;;;;26.00;24.80;;;;;;;;;;4180167;28;20045;-59
2024/01/01 06:55:53;;;;;;;25.87;24.77;;;;;;;;;;4166294;28;20509;-60
2024/01/01 06:57:55;;;;;;;27.10;25.87;;;;;;;;;;4178667;28;20039;-59
2024/01/01 06:59:56;;;;;;;26.45;25.13;;;;;;;;;;4164583;28;20292;-59
2024/01/01 07:01:58;;;;;;;27.75;26.55;;;;;;;;;;4177608;28;20041;-59
2024/01/01 07:04:00;;;;;;;26.58;25.35;;;;;;;;;;4166943;28;20099;-59
2024/01/01 07:06:02;;;;;;;28.48;26.50;;;;;;;;;;4175608;28;20477;-60
2024/01/01 07:08:04;;;;;;;26.75;25.48;;;;;;;;;;4169139;28;20079;-59
2024/01/01 07:10:06;;;;;;;;;;;;;;;;;;4176934;28;20466;-60
2024/01/01 07:12:18;;;;;;;27.70;26.73;;;;;;;;;;4163403;28;19983;-59
2024/01/01 07:14:20;;;;;;;27.77;26.40;;;;;;;;;;4174652;28;20567;-60
2024/01/01 07:16:22;;;;;;;26.27;25.20;;;;;;;;;;4167655;28;20476;-60
2024/01/01 07:18:23;;;;;;;26.33;24.90;;;;;;;;;;4176792;28;20299;-60
2024/01/01 07:20:25;;;;;;;25.87;24.80;;;;;;;;;;4165158;28;20069;-60
2024/01/01 07:22:27;;;;;;;29.08;27.40;;;;;;;;;;4175700;28;20033;-60
2024/01/01 07:24:29;;;;;;;28.60;27.02;;;;;;;;;;4178480;28;20488;-59
2024/01/01 07:26:30;;;;;;;28.10;26.77;;;;;;;;;;4166467;28;20043;-60
2024/01/01 07:28:32;;;;;;;27.88;26.60;;;;;;;;;;4175783;28;20060;-60
2024/01/01 07:30:34;;;;;;;27.88;26.58;;;;;;;;;;4168872;28;20037;-60
2024/01/01 07:32:35;;;;;;;29.85;28.48;;;;;;;;;;4173540;28;20045;-60
2024/01/01 07:34:37;;;;;;;27.63;26.93;;;;;;;;;;4167320;28;20037;-60
2024/01/01 07:36:41;;;;;;;28.10;26.60;;;;;;;;;;4175142;28;20302;-60
2024/01/01 07:38:43;;;;;;;27.02;25.63;;;;;;;;;;4172422;28;20044;-60
2024/01/01 07:40:45;;;;;;;29.00;27.67;;;;;;;;;;4178009;28;20063;-60
2024/01/01 07:42:47;;;;;;;28.65;27.42;;;;;;;;;;4169638;28;20041;-60
2024/01/01 07:44:48;;;;;;;29.58;28.05;;;;;;;;;;4180598;28;20041;-60
2024/01/01 07:46:50;;;;;;;27.80;26.50;;;;;;;;;;4167127;28;20104;-60
2024/01/01 07:48:51;;;;;;;29.17;27.80;;;;;;;;;;4181571;28;20047;-60
2024/01/01 07:50:53;;;;;;;27.20;25.83;;;;;;;;;;4168434;28;20046;-60
2024/01/01 07:52:55;;;;;;;28.70;26.80;;;;;;;;;;4182803;28;20349;-63
2024/01/01 07:54:57;;;;;;;27.50;25.88;;;;;;;;;;4177658;28;20399;-63
2024/01/01 07:57:00;;;;;;;29.90;28.33;;;;;;;;;;4172260;28;20048;-63
2024/01/01 07:59:02;;;;;;;28.15;26.73;;;;;;;;;;4174898;28;20042;-62
2024/01/01 08:01:03;;;;;;;31.70;30.10;;;;;;;;;;4174479;28;20132;-62
2024/01/01 08:03:05;;;;;;;32.60;30.77;;;;;;;;;;4172081;28;20054;-63
2024/01/01 08:05:07;;;;;;;30.13;28.03;;;;;;;;;;4177220;28;20389;-62
2024/01/01 08:07:09;;;;;;;28.45;27.40;;;;;;;;;;4167702;28;20128;-62
2024/01/01 08:09:10;;;;;;;29.65;27.98;;;;;;;;;;4175902;28;20049;-63
2024/01/01 08:11:12;;;;;;;27.02;25.10;;;;;;;;;;4182190;28;20494;-62
2024/01/01 08:13:14;;;;;;;28.08;26.77;;;;;;;;;;4166658;28;20551;-63
2024/01/01 08:15:15;;;;;;;26.63;25.77;;;;;;;;;;4180550;28;20083;-63
2024/01/01 08:17:17;;;;;;;25.98;24.63;;;;;;;;;;4168631;28;20041;-62
2024/01/01 08:19:18;;;;;;;28.83;27.45;;;;;;;;;;4177642;28;20087;-62
2024/01/01 08:21:20;;;;;;;28.60;27.37;;;;;;;;;;4176330;28;20038;-63
2024/01/01 08:23:22;;;;;;;29.42;28.05;;;;;;;;;;4172664;28;20120;-62
2024/01/01 08:25:24;;;;;;;30.70;28.80;;;;;;;;;;4173788;28;20128;-62
2024/01/01 08:27:25;;;;;;;29.02;27.58;;;;;;;;;;4174998;28;20417;-62
2024/01/01 08:29:27;;;;;;;29.92;27.73;;;;;;;;;;4164706;28;20042;-62
2024/01/01 08:31:29;;;;;;;30.00;27.80;;;;;;;;;;4158161;28;20097;-62
2024/01/01 08:33:30;;;;;;;30.57;29.20;;;;;;;;;;4175091;28;20063;-62
2024/01/01 08:35:32;;;;;;;29.77;27.95;;;;;;;;;;4161307;28;20660;-62
2024/01/01 08:37:34;;;;;;;34.43;32.47;;;;;;;;;;4169210;28;20045;-63
2024/01/01 08:39:36;;;;;;;32.03;29.77;;;;;;;;;;4180607;28;20037;-63
2024/01/01 08:41:42;;;;;;;32.38;30.33;;;;;;;;;;4167704;28;20037;-62
2024/01/01 08:43:43;;;;;;;30.40;28.52;;;;;;;;;;4173833;28;20041;-62
2024/01/01 08:45:45;;;;;;;29.23;27.73;;;;;;;;;;4159735;28;20040;-62
2024/01/01 08:47:47;;;;;;;28.85;26.90;;;;;;;;;;4175109;28;20052;-62
2024/01/01 08:49:48;;;;;;;29.13;27.40;;;;;;;;;;4173220;28;20452;-62
2024/01/01 08:51:50;;;;;;;28.48;26.95;;;;;;;;;;4177232;28;20044;-62
2024/01/01 08:53:52;;;;;;;27.97;26.73;;;;;;;;;;4171908;28;20034;-63
2024/01/01 08:55:53;;;;;;;30.92;28.90;;;;;;;;;;4162373;28;20042;-62
2024/01/01 08:57:55;;;;;;;28.87;27.27;;;;;;;;;;4169225;28;20121;-62
2024/01/01 08:59:56;;;;;;;29.33;27.60;;;;;;;;;;4164859;28;20555;-62
2024/01/01 09:01:58;;;;;;;31.67;29.63;;;;;;;;;;4179874;28;20049;-63
2024/01/01 09:04:04;;;;;;;30.65;28.98;;;;;;;;;;4165265;28;20092;-62
2024/01/01 09:06:06;;;;;;;31.38;29.63;;;;;;;;;;4178444;28;20121;-62
2024/01/01 09:08:07;;;;;;;32.92;30.63;;;;;;;;;;4168945;28;20378;-63
2024/01/01 09:10:10;;;;;;;34.50;32.40;;;;;;;;;;4181137;28;20515;-62
2024/01/01 09:12:12;;;;;;;34.15;32.03;;;;;;;;;;4161275;28;20045;-62
2024/01/01 09:14:13;;;;;;;34.25;32.03;;;;;;;;;;4157845;28;20037;-62
2024/01/01 09:16:15;;;;;;;31.52;29.05;;;;;;;;;;4163520;28;20407;-62
2024/01/01 09:18:17;;;;;;;31.08;29.25;;;;;;;;;;4170254;28;20033;-62
2024/01/01 09:20:19;;;;;;;30.80;29.10;;;;;;;;;;4163639;28;20505;-62
2024/01/01 09:22:21;;;;;;;31.13;29.70;;;;;;;;;;4153529;28;20044;-62
2024/01/01 09:24:22;;;;;;;27.90;26.50;;;;;;;;;;4176575;28;20370;-62
2024/01/01 09:26:24;;;;;;;26.43;24.97;;;;;;;;;;4162340;28;20041;-62
2024/01/01 09:28:26;;;;;;;32.13;30.27;;;;;;;;;;4150176;28;20096;-63
2024/01/01 09:30:28;;;;;;;30.42;28.38;;;;;;;;;;4165599;28;20056;-62
2024/01/01 09:32:30;;;;;;;29.47;27.83;;;;;;;;;;4166721;28;20402;-62
2024/01/01 09:34:34;;;;;;;29.17;27.40;;;;;;;;;;4168478;28;20288;-63
2024/01/01 09:36:36;;;;;;;28.30;27.07;;;;;;;;;;4167446;28;20041;-62
2024/01/01 09:38:53;;;;;;;28.45;27.15;;;;;;;;;;4173992;28;20291;-62
2024/01/01 09:40:55;;;;;;;26.37;24.73;;;;;;;;;;4162012;28;20417;-62
2024/01/01 09:42:57;;;;;;;25.70;24.40;;;;;;;;;;4158524;28;20064;-63
2024/01/01 09:44:59;;;;;;;26.70;25.27;;;;;;;;;;4171341;28;20040;-62
2024/01/01 09:47:05;;;;;;;25.88;24.38;;;;;;;;;;4137677;28;20066;-62
2024/01/01 09:49:07;;;;;;;25.30;24.10;;;;;;;;;;4150015;28;20049;-63
2024/01/01 09:51:09;;;;;;;26.70;25.27;;;;;;;;;;4163081;28;20068;-63
2024/01/01 09:53:10;;;;;;;31.70;29.42;;;;;;;;;;4165685;28;20045;-62
2024/01/01 09:55:12;;;;;;;31.90;29.35;;;;;;;;;;4162192;28;20053;-63
2024/01/01 09:57:14;;;;;;;26.13;24.70;;;;;;;;;;4158934;28;20076;-62
2024/01/01 09:59:35;;;;;;;30.70;28.77;;;;;;;;;;4155662;28;20498;-63
2024/01/01 10:01:38;;;;;;;25.67;24.58;;;;;;;;;;4165890;28;20390;-62
2024/01/01 10:03:43;;;;;;;26.52;24.85;;;;;;;;;;4113810;28;20054;-62
2024/01/01 10:05:48;;;;;;;27.90;26.73;;;;;;;;;;4175979;28;20496;-62
2024/01/01 10:07:51;;;;;;;27.75;25.67;;;;;;;;;;4158731;28;20553;-62
2024/01/01 10:09:53;;;;;;;31.00;28.65;;;;;;;;;;4158526;28;20042;-62
2024/01/01 10:12:09;;;;;;;29.00;27.40;;;;;;;;;;4158662;28;20045;-62
2024/01/01 10:14:11;;;;;;;34.47;32.47;;;;;;;;;;4156957;28;20452;-62
2024/01/01 10:16:26;;;;;;;50.35;45.65;;;;;;;;;;4160310;28;20152;-62
2024/01/01 10:18:28;;;;;;;34.05;31.33;;;;;;;;;;4158720;28;20041;-63
2024/01/01 10:20:30;;;;;;;29.23;26.75;;;;;;;;;;4160663;28;20044;-62
2024/01/01 10:22:31;;;;;;;29.02;27.73;;;;;;;;;;4162391;28;20034;-61
2024/01/01 10:24:33;;;;;;;27.80;26.45;;;;;;;;;;4165855;28;20038;-62
2024/01/01 10:26:39;;;;;;;25.83;24.43;;;;;;;;;;4166004;28;20037;-62
2024/01/01 10:28:41;;;;;;;29.45;27.70;;;;;;;;;;4176647;28;20033;-63
2024/01/01 10:30:46;;;;;;;27.27;25.75;;;;;;;;;;4176698;28;20555;-63
2024/01/01 10:32:49;;;;;;;29.92;27.52;;;;;;;;;;4168733;28;20041;-62
2024/01/01 10:34:51;;;;;;;;;;;;;;;;;;4148197;28;20069;-62
2024/01/01 10:36:53;;;;;;;35.70;32.53;;;;;;;;;;4164460;28;19921;-62
2024/01/01 10:38:55;;;;;;;;;;;;;;;;;;4161772;28;20041;-62
2024/01/01 10:40:56;;;;;;;29.80;27.88;;;;;;;;;;4159961;28;20375;-62
2024/01/01 10:42:59;;;;;;;27.85;26.35;;;;;;;;;;4175346;28;20125;-63
2024/01/01 10:45:04;;;;;;;75.57;25.98;;;;;;;;;;4166241;28;20041;-63
2024/01/01 10:47:09;;;;;;;27.25;25.75;;;;;;;;;;4158724;28;20053;-62
2024/01/01 10:49:14;;;;;;;52.60;28.88;;;;;;;;;;4178866;28;20041;-62
2024/01/01 10:51:22;;;;;;;26.85;25.15;;;;;;;;;;4162860;28;20042;-62
2024/01/01 10:53:26;;;;;;;24.25;23.33;;;;;;;;;;4167632;28;20120;-62
2024/01/01 10:55:34;;;;;;;24.60;23.17;;;;;;;;;;4161946;28;20049;-63
2024/01/01 10:58:02;;;;;;;26.10;24.70;;;;;;;;;;4155157;28;20064;-62
2024/01/01 11:00:10;;;;;;;25.27;23.95;;;;;;;;;;4139838;28;20053;-62
2024/01/01 11:02:12;;;;;;;27.55;25.67;;;;;;;;;;4161017;28;20042;-62
2024/01/01 11:04:15;;;;;;;27.05;25.65;;;;;;;;;;4166870;28;20402;-62
2024/01/01 11:06:16;;;;;;;;;;;;;;;;;;4162305;28;20040;-63
2024/01/01 11:08:26;;;;;;;28.95;26.92;;;;;;;;;;4172432;28;19925;-62
2024/01/01 11:10:35;;;;;;;24.30;22.75;;;;;;;;;;4183046;28;20073;-62
2024/01/01 11:12:37;;;;;;;78.22;39.58;;;;;;;;;;4161761;28;20072;-62
2024/01/01 11:14:41;;;;;;;33.83;26.67;;;;;;;;;;4158472;28;20604;-63
2024/01/01 11:16:53;;;;;;;27.23;25.45;;;;;;;;;;4153598;28;20129;-63
2024/01/01 11:19:05;;;;;;;24.73;23.77;;;;;;;;;;4149777;28;20034;-62
2024/01/01 11:21:07;;;;;;;26.42;24.83;;;;;;;;;;4157123;28;20129;-62
2024/01/01 11:23:09;;;;;;;28.48;26.08;;;;;;;;;;4170985;28;20056;-63
2024/01/01 11:25:27;;;;;;;31.10;28.90;;;;;;;;;;4177955;28;20064;-63
2024/01/01 11:27:31;;;;;;;27.52;25.00;;;;;;;;;;4161085;28;20076;-62
2024/01/01 11:29:33;;;;;;;27.50;25.58;;;;;;;;;;4158430;28;20501;-63
2024/01/01 11:31:35;;;;;;;25.20;23.97;;;;;;;;;;4175646;28;20057;-63
2024/01/01 11:33:36;;;;;;;25.08;23.70;;;;;;;;;;4153617;28;20038;-62
2024/01/01 11:35:39;;;;;;;25.10;23.60;;;;;;;;;;4164491;28;20502;-62
2024/01/01 11:37:42;;;;;;;27.08;25.52;;;;;;;;;;4160265;28;20056;-63
2024/01/01 11:39:44;;;;;;;22.35;20.85;;;;;;;;;;4163079;28;20100;-63
2024/01/01 11:41:45;;;;;;;25.55;24.33;;;;;;;;;;4160954;28;20038;-62
2024/01/01 11:43:47;;;;;;;24.58;22.88;;;;;;;;;;4162166;28;20091;-60
2024/01/01 11:45:53;;;;;;;24.38;23.00;;;;;;;;;;4149319;28;20467;-59
2024/01/01 11:48:06;;;;;;;26.17;24.58;;;;;;;;;;4158334;28;20038;-60
2024/01/01 11:50:09;;;;;;;25.42;24.25;;;;;;;;;;4158668;28;20121;-60
2024/01/01 11:52:16;;;;;;;25.25;23.63;;;;;;;;;;4167083;28;20044;-60
2024/01/01 11:54:18;;;;;;;25.88;24.55;;;;;;;;;;4166119;28;20041;-59